createdAt,value
2018-06-24T00:00:15.861Z,85.30
2018-06-24T00:02:44.517Z,85.39
2018-06-24T00:05:12.928Z,86.03
2018-06-24T00:07:41.392Z,85.43
2018-06-24T00:10:10.219Z,86.65
2018-06-24T00:12:38.745Z,86.01
2018-06-24T00:15:07.345Z,87.38
2018-06-24T00:17:35.791Z,86.68
2018-06-24T00:20:04.340Z,87.33
2018-06-24T00:22:32.925Z,88.33
2018-06-24T00:25:01.365Z,89.20
2018-06-24T00:27:29.808Z,89.70
2018-06-24T00:29:58.212Z,90.35
2018-06-24T00:32:26.695Z,90.30
2018-06-24T00:34:55.155Z,91.39
2018-06-24T00:37:23.596Z,91.70
2018-06-24T00:39:52.048Z,90.74
2018-06-24T00:42:20.523Z,92.41
2018-06-24T00:44:48.968Z,91.97
2018-06-24T00:47:17.368Z,92.66
2018-06-24T00:49:45.799Z,92.28
2018-06-24T00:52:14.258Z,92.01
2018-06-24T00:54:42.706Z,93.03
2018-06-24T00:57:11.578Z,92.67
2018-06-24T00:59:51.251Z,92.75
2018-06-24T01:02:19.718Z,93.99
2018-06-24T01:04:48.146Z,93.58
2018-06-24T01:07:16.682Z,93.18
2018-06-24T01:09:45.119Z,94.37
2018-06-24T01:12:13.534Z,93.71
2018-06-24T01:14:41.981Z,94.49
2018-06-24T01:17:10.544Z,93.86
2018-06-24T01:19:39.379Z,93.55
2018-06-24T01:22:07.840Z,94.50
2018-06-24T01:24:36.399Z,94.88
2018-06-24T01:27:05.160Z,94.41
2018-06-24T01:29:33.618Z,94.28
2018-06-24T01:32:02.069Z,94.20
2018-06-24T01:34:30.649Z,94.19
2018-06-24T01:36:59.080Z,94.52
2018-06-24T01:39:27.491Z,95.19
2018-06-24T01:41:55.923Z,95.60
2018-06-24T01:44:24.327Z,95.14
2018-06-24T01:46:52.763Z,95.22
2018-06-24T01:49:21.180Z,95.69
2018-06-24T01:51:49.652Z,95.39
2018-06-24T01:54:18.330Z,94.89
2018-06-24T01:56:47.027Z,94.88
2018-06-24T01:59:15.502Z,95.77
2018-06-24T02:01:43.916Z,95.46
2018-06-24T02:04:12.318Z,94.87
2018-06-24T02:06:40.775Z,96.11
2018-06-24T02:09:11.998Z,95.47
2018-06-24T02:11:40.678Z,95.70
2018-06-24T02:14:09.071Z,97.68
2018-06-24T02:16:38.063Z,99.41
2018-06-24T02:19:07.814Z,100.00
2018-06-24T02:21:36.250Z,100.00
2018-06-24T02:24:04.808Z,100.00
2018-06-24T02:26:33.255Z,100.00
2018-06-24T02:29:01.788Z,100.00
2018-06-24T02:31:30.243Z,100.00
2018-06-24T02:35:27.849Z,100.00
2018-06-24T02:37:56.256Z,100.00
2018-06-24T02:40:24.709Z,100.00
2018-06-24T02:42:53.342Z,100.00
2018-06-24T02:46:50.887Z,100.00
2018-06-24T02:49:19.350Z,100.00
2018-06-24T02:51:47.823Z,100.00
2018-06-24T02:54:16.625Z,100.00
2018-06-24T02:56:45.068Z,100.00
2018-06-24T02:59:13.546Z,100.00
2018-06-24T03:01:42.008Z,100.00
2018-06-24T03:04:10.426Z,100.00
2018-06-24T03:06:38.844Z,100.00
2018-06-24T03:09:09.305Z,100.00
2018-06-24T03:11:37.785Z,100.00
2018-06-24T03:14:06.271Z,100.00
2018-06-24T03:16:34.927Z,100.00
2018-06-24T03:19:03.392Z,100.00
2018-06-24T03:21:31.831Z,100.00
2018-06-24T03:24:00.247Z,100.00
2018-06-24T03:26:28.691Z,100.00
2018-06-24T03:28:57.228Z,100.00
2018-06-24T03:31:25.840Z,100.00
2018-06-24T03:33:54.468Z,100.00
2018-06-24T03:36:23.055Z,100.00
2018-06-24T03:38:51.463Z,100.00
2018-06-24T03:41:19.979Z,100.00
2018-06-24T03:43:48.440Z,100.00
2018-06-24T03:46:16.870Z,100.00
2018-06-24T03:48:45.596Z,100.00
2018-06-24T03:51:14.023Z,100.00
2018-06-24T03:53:42.491Z,100.00
2018-06-24T03:56:11.289Z,100.00
2018-06-24T03:58:39.568Z,100.00
2018-06-24T04:01:08.008Z,100.00
2018-06-24T04:03:36.434Z,100.00
2018-06-24T04:06:04.926Z,100.00
2018-06-24T04:08:33.339Z,100.00
2018-06-24T04:11:01.816Z,100.00
2018-06-24T04:13:30.205Z,100.00
2018-06-24T04:16:04.648Z,100.00
2018-06-24T04:18:42.669Z,100.00
2018-06-24T04:21:12.779Z,100.00
2018-06-24T04:23:42.710Z,100.00
2018-06-24T04:26:11.864Z,100.00
2018-06-24T04:28:40.676Z,100.00
2018-06-24T04:31:10.272Z,100.00
2018-06-24T04:33:38.823Z,100.00
2018-06-24T04:36:07.283Z,100.00
2018-06-24T04:38:35.730Z,100.00
2018-06-24T04:41:04.260Z,100.00
2018-06-24T04:43:33.527Z,100.00
2018-06-24T04:46:01.991Z,100.00
2018-06-24T04:48:30.623Z,100.00
2018-06-24T04:50:59.090Z,100.00
2018-06-24T04:53:27.615Z,100.00
2018-06-24T04:55:56.306Z,100.00
2018-06-24T04:58:24.707Z,100.00
2018-06-24T05:00:53.142Z,100.00
2018-06-24T05:03:21.599Z,100.00
2018-06-24T05:05:50.015Z,100.00
2018-06-24T05:08:18.507Z,100.00
2018-06-24T05:10:46.936Z,100.00
2018-06-24T05:13:15.427Z,100.00
2018-06-24T05:15:43.856Z,100.00
2018-06-24T05:18:12.441Z,100.00
2018-06-24T05:20:40.954Z,100.00
2018-06-24T05:23:09.429Z,100.00
2018-06-24T05:25:37.868Z,100.00
2018-06-24T05:28:06.401Z,100.00
2018-06-24T05:30:34.863Z,100.00
2018-06-24T05:33:03.304Z,100.00
2018-06-24T05:35:31.756Z,100.00
2018-06-24T05:38:00.236Z,100.00
2018-06-24T05:40:28.729Z,100.00
2018-06-24T05:42:57.223Z,100.00
2018-06-24T05:45:25.624Z,100.00
2018-06-24T05:47:54.069Z,100.00
2018-06-24T05:50:22.562Z,100.00
2018-06-24T05:52:51.036Z,100.00
2018-06-24T05:55:19.610Z,100.00
2018-06-24T05:57:48.096Z,100.00
2018-06-24T06:00:16.608Z,100.00
2018-06-24T06:02:45.070Z,100.00
2018-06-24T06:05:13.523Z,100.00
2018-06-24T06:07:42.140Z,100.00
2018-06-24T06:10:10.613Z,100.00
2018-06-24T06:12:39.075Z,100.00
2018-06-24T06:15:07.570Z,100.00
2018-06-24T06:17:36.045Z,100.00
2018-06-24T06:20:05.180Z,100.00
2018-06-24T06:22:33.634Z,100.00
2018-06-24T06:25:02.657Z,100.00
2018-06-24T06:27:31.160Z,100.00
2018-06-24T06:29:59.593Z,100.00
2018-06-24T06:32:28.323Z,100.00
2018-06-24T06:34:57.020Z,99.27
2018-06-24T06:37:25.484Z,99.14
2018-06-24T06:39:53.914Z,98.51
2018-06-24T06:42:22.362Z,96.88
2018-06-24T06:44:50.919Z,97.44
2018-06-24T06:47:19.328Z,97.89
2018-06-24T06:49:47.939Z,94.55
2018-06-24T06:52:16.616Z,92.10
2018-06-24T06:54:45.451Z,92.43
2018-06-24T06:57:14.770Z,90.29
2018-06-24T06:59:43.257Z,89.90
2018-06-24T07:02:11.905Z,92.15
2018-06-24T07:04:40.865Z,90.66
2018-06-24T07:07:10.115Z,87.34
2018-06-24T07:09:38.850Z,90.56
2018-06-24T07:12:07.548Z,91.40
2018-06-24T07:14:36.694Z,89.10
2018-06-24T07:17:05.755Z,87.76
2018-06-24T07:19:34.205Z,85.92
2018-06-24T07:22:02.741Z,86.62
2018-06-24T07:24:31.435Z,87.58
2018-06-24T07:26:59.938Z,86.75
2018-06-24T07:29:28.366Z,86.39
2018-06-24T07:31:56.841Z,87.80
2018-06-24T07:34:25.309Z,86.92
2018-06-24T07:36:53.804Z,91.13
2018-06-24T07:39:22.373Z,89.46
2018-06-24T07:41:50.828Z,90.28
2018-06-24T07:44:19.223Z,88.19
2018-06-24T07:46:47.710Z,87.15
2018-06-24T07:49:16.140Z,86.70
2018-06-24T07:51:44.587Z,85.93
2018-06-24T07:54:13.263Z,83.32
2018-06-24T07:56:41.687Z,81.18
2018-06-24T07:59:10.107Z,81.32
2018-06-24T08:01:38.547Z,80.68
2018-06-24T08:04:06.947Z,81.89
2018-06-24T08:06:35.359Z,84.03
2018-06-24T08:09:04.911Z,84.03
2018-06-24T08:11:33.372Z,80.34
2018-06-24T08:14:01.898Z,79.26
2018-06-24T08:16:30.308Z,77.81
2018-06-24T08:18:58.723Z,78.62
2018-06-24T08:21:27.122Z,79.33
2018-06-24T08:23:55.577Z,79.81
2018-06-24T08:26:24.322Z,79.48
2018-06-24T08:28:52.731Z,76.82
2018-06-24T08:31:21.195Z,79.09
2018-06-24T08:33:49.838Z,79.58
2018-06-24T08:36:18.504Z,81.98
2018-06-24T08:38:47.809Z,80.23
2018-06-24T08:41:16.510Z,79.88
2018-06-24T08:43:45.265Z,79.03
2018-06-24T08:46:13.914Z,80.29
2018-06-24T08:48:42.326Z,77.72
2018-06-24T08:51:10.801Z,76.01
2018-06-24T08:53:39.346Z,75.76
2018-06-24T08:56:07.807Z,75.81
2018-06-24T08:58:36.238Z,76.58
2018-06-24T09:01:04.731Z,76.82
2018-06-24T09:03:33.166Z,77.71
2018-06-24T09:06:01.872Z,75.36
2018-06-24T09:08:30.294Z,75.72
2018-06-24T09:10:58.943Z,76.88
2018-06-24T09:13:27.674Z,72.42
2018-06-24T09:15:56.140Z,72.34
2018-06-24T09:18:24.611Z,69.53
2018-06-24T09:20:53.035Z,72.33
2018-06-24T09:23:21.492Z,72.45
2018-06-24T09:25:49.978Z,74.09
2018-06-24T09:28:18.427Z,71.95
2018-06-24T09:30:47.036Z,73.35
2018-06-24T09:33:15.423Z,71.72
2018-06-24T09:35:43.911Z,74.95
2018-06-24T09:38:12.337Z,72.58
2018-06-24T09:40:41.009Z,72.21
2018-06-24T09:43:09.474Z,73.09
2018-06-24T09:45:37.935Z,69.38
2018-06-24T09:48:06.563Z,70.22
2018-06-24T09:50:34.984Z,72.48
2018-06-24T09:53:04.063Z,70.02
2018-06-24T09:55:33.131Z,71.25
2018-06-24T09:58:01.581Z,67.47
2018-06-24T10:00:30.284Z,67.74
2018-06-24T10:02:58.929Z,69.31
2018-06-24T10:05:27.368Z,65.65
2018-06-24T10:07:55.792Z,68.01
2018-06-24T10:10:24.204Z,68.42
2018-06-24T10:12:52.645Z,68.94
2018-06-24T10:15:21.067Z,68.47
2018-06-24T10:17:49.531Z,69.23
2018-06-24T10:20:17.951Z,68.68
2018-06-24T10:22:46.571Z,69.29
2018-06-24T10:25:15.249Z,69.63
2018-06-24T10:27:43.668Z,67.79
2018-06-24T10:30:12.139Z,69.31
2018-06-24T10:32:40.611Z,68.00
2018-06-24T10:36:38.422Z,68.09
2018-06-24T10:39:09.567Z,69.54
2018-06-24T10:41:37.990Z,66.76
2018-06-24T10:44:06.690Z,68.90
2018-06-24T10:46:35.107Z,64.51
2018-06-24T10:49:03.926Z,65.31
2018-06-24T10:51:32.740Z,65.83
2018-06-24T10:54:01.210Z,63.90
2018-06-24T10:56:29.723Z,61.56
2018-06-24T10:58:58.127Z,61.09
2018-06-24T11:01:26.581Z,60.40
2018-06-24T11:03:54.972Z,57.59
2018-06-24T11:06:23.428Z,59.68
2018-06-24T11:08:51.922Z,60.01
2018-06-24T11:11:20.389Z,61.28
2018-06-24T11:13:48.844Z,65.06
2018-06-24T11:16:17.288Z,64.81
2018-06-24T11:18:45.903Z,65.20
2018-06-24T11:21:14.384Z,65.80
2018-06-24T11:23:43.041Z,64.93
2018-06-24T11:26:11.661Z,64.60
2018-06-24T11:28:40.141Z,64.87
2018-06-24T11:31:09.329Z,64.29
2018-06-24T11:33:37.747Z,65.27
2018-06-24T11:36:06.184Z,65.94
2018-06-24T11:38:34.677Z,66.56
2018-06-24T11:41:03.219Z,66.08
2018-06-24T11:43:31.729Z,64.33
2018-06-24T11:46:00.162Z,62.52
2018-06-24T11:48:28.599Z,62.91
2018-06-24T11:50:57.059Z,65.66
2018-06-24T11:53:25.471Z,61.33
2018-06-24T11:55:54.180Z,63.10
2018-06-24T11:58:22.612Z,64.51
2018-06-24T12:00:51.085Z,64.68
2018-06-24T12:03:19.540Z,62.73
2018-06-24T12:05:48.143Z,60.99
2018-06-24T12:08:16.920Z,60.41
2018-06-24T12:10:45.654Z,62.14
2018-06-24T12:13:14.131Z,62.37
2018-06-24T12:15:42.526Z,63.57
2018-06-24T12:18:10.931Z,62.19
2018-06-24T12:20:39.409Z,63.36
2018-06-24T12:23:07.823Z,64.99
2018-06-24T12:25:36.266Z,65.25
2018-06-24T12:28:04.744Z,63.45
2018-06-24T12:30:33.200Z,60.37
2018-06-24T12:33:01.648Z,60.63
2018-06-24T12:35:30.097Z,60.01
2018-06-24T12:37:58.535Z,60.86
2018-06-24T12:40:34.162Z,56.11
2018-06-24T12:43:04.094Z,54.43
2018-06-24T12:45:33.381Z,51.14
2018-06-24T12:48:02.065Z,47.60
2018-06-24T12:50:30.507Z,50.19
2018-06-24T12:52:58.930Z,50.50
2018-06-24T12:55:27.751Z,52.41
2018-06-24T12:57:56.867Z,59.29
2018-06-24T13:00:26.312Z,57.54
2018-06-24T13:02:54.214Z,55.07
2018-06-24T13:05:22.940Z,50.18
2018-06-24T13:07:51.526Z,51.13
2018-06-24T13:10:19.999Z,52.20
2018-06-24T13:12:48.418Z,51.72
2018-06-24T13:15:16.871Z,50.81
2018-06-24T13:17:45.300Z,52.11
2018-06-24T13:20:13.735Z,51.39
2018-06-24T13:22:42.542Z,47.34
2018-06-24T13:25:11.155Z,48.95
2018-06-24T13:27:39.864Z,48.86
2018-06-24T13:30:08.347Z,47.44
2018-06-24T13:32:36.819Z,46.58
2018-06-24T13:35:05.304Z,48.10
2018-06-24T13:37:33.801Z,47.14
2018-06-24T13:40:02.228Z,46.71
2018-06-24T13:42:30.690Z,44.94
2018-06-24T13:44:59.159Z,46.21
2018-06-24T13:47:27.638Z,47.75
2018-06-24T13:49:56.202Z,49.20
2018-06-24T13:52:24.614Z,46.61
2018-06-24T13:54:53.044Z,45.43
2018-06-24T13:57:21.722Z,46.37
2018-06-24T13:59:50.244Z,48.37
2018-06-24T14:02:18.724Z,51.39
2018-06-24T14:04:47.435Z,44.25
2018-06-24T14:07:15.919Z,45.75
2018-06-24T14:09:44.406Z,44.85
2018-06-24T14:12:12.873Z,43.32
2018-06-24T14:14:41.319Z,44.73
2018-06-24T14:17:09.743Z,45.29
2018-06-24T14:19:38.199Z,46.45
2018-06-24T14:22:06.667Z,44.34
2018-06-24T14:24:35.487Z,47.91
2018-06-24T14:27:03.996Z,45.81
2018-06-24T14:29:32.632Z,46.24
2018-06-24T14:32:01.144Z,47.67
2018-06-24T14:34:29.567Z,47.67
2018-06-24T14:36:58.415Z,49.12
2018-06-24T14:39:26.947Z,50.34
2018-06-24T14:41:55.388Z,50.04
2018-06-24T14:44:24.220Z,48.25
2018-06-24T14:46:52.726Z,50.39
2018-06-24T14:49:21.161Z,50.05
2018-06-24T14:51:49.615Z,52.24
2018-06-24T14:54:18.021Z,51.20
2018-06-24T14:56:46.676Z,52.38
2018-06-24T14:59:15.169Z,52.46
2018-06-24T15:01:43.588Z,51.44
2018-06-24T15:04:12.015Z,52.58
2018-06-24T15:06:40.449Z,53.95
2018-06-24T15:09:11.514Z,51.90
2018-06-24T15:11:40.173Z,53.59
2018-06-24T15:14:09.083Z,53.28
2018-06-24T15:16:38.231Z,52.84
2018-06-24T15:19:07.480Z,52.92
2018-06-24T15:21:36.399Z,51.46
2018-06-24T15:24:04.863Z,53.23
2018-06-24T15:26:33.376Z,53.75
2018-06-24T15:29:01.827Z,53.12
2018-06-24T15:31:30.278Z,52.30
2018-06-24T15:33:58.990Z,53.78
2018-06-24T15:36:27.463Z,53.42
2018-06-24T15:38:55.901Z,51.66
2018-06-24T15:41:24.397Z,53.51
2018-06-24T15:43:52.883Z,52.31
2018-06-24T15:46:21.295Z,53.40
2018-06-24T15:48:49.800Z,52.15
2018-06-24T15:51:19.495Z,51.22
2018-06-24T15:53:48.300Z,49.83
2018-06-24T15:56:17.327Z,50.42
2018-06-24T15:58:45.729Z,49.25
2018-06-24T16:01:14.225Z,50.63
2018-06-24T16:03:42.689Z,49.13
2018-06-24T16:06:11.564Z,50.06
2018-06-24T16:08:39.958Z,50.54
2018-06-24T16:11:08.353Z,50.90
2018-06-24T16:13:36.842Z,52.02
2018-06-24T16:16:05.279Z,50.50
2018-06-24T16:18:34.381Z,52.55
2018-06-24T16:21:03.230Z,52.73
2018-06-24T16:23:31.274Z,52.42
2018-06-24T16:25:59.902Z,51.41
2018-06-24T16:28:28.316Z,52.37
2018-06-24T16:30:56.916Z,52.19
2018-06-24T16:33:25.319Z,51.92
2018-06-24T16:35:53.883Z,51.00
2018-06-24T16:38:22.476Z,51.95
2018-06-24T16:40:50.900Z,51.04
2018-06-24T16:43:19.373Z,50.99
2018-06-24T16:45:47.799Z,51.38
2018-06-24T16:48:16.515Z,51.25
2018-06-24T16:50:45.030Z,51.75
2018-06-24T16:53:13.437Z,51.15
2018-06-24T16:57:11.259Z,51.82
2018-06-24T16:59:39.699Z,51.26
2018-06-24T17:02:08.184Z,51.91
2018-06-24T17:04:36.653Z,51.50
2018-06-24T17:07:05.290Z,50.97
2018-06-24T17:09:33.972Z,52.30
2018-06-24T17:12:02.487Z,52.79
2018-06-24T17:14:30.954Z,52.45
2018-06-24T17:16:59.413Z,53.58
2018-06-24T17:19:27.871Z,53.16
2018-06-24T17:21:56.359Z,53.06
2018-06-24T17:24:24.779Z,54.17
2018-06-24T17:26:53.297Z,53.68
2018-06-24T17:29:21.707Z,52.63
2018-06-24T17:31:50.195Z,54.38
2018-06-24T17:34:18.591Z,54.65
2018-06-24T17:36:47.084Z,54.73
2018-06-24T17:39:15.511Z,55.09
2018-06-24T17:41:46.063Z,55.29
2018-06-24T17:44:15.315Z,55.65
2018-06-24T17:46:43.987Z,56.08
2018-06-24T17:49:12.555Z,55.71
2018-06-24T17:51:41.104Z,55.75
2018-06-24T17:54:09.540Z,56.50
2018-06-24T17:56:38.314Z,57.64
2018-06-24T17:59:06.744Z,56.83
2018-06-24T18:01:35.196Z,57.30
2018-06-24T18:04:03.856Z,57.30
2018-06-24T18:06:32.310Z,57.15
2018-06-24T18:09:00.793Z,57.19
2018-06-24T18:11:29.287Z,57.84
2018-06-24T18:13:57.795Z,59.53
2018-06-24T18:16:26.213Z,58.82
2018-06-24T18:18:54.663Z,58.09
2018-06-24T18:21:23.117Z,57.40
2018-06-24T18:23:51.548Z,58.34
2018-06-24T18:26:20.006Z,59.36
2018-06-24T18:28:48.417Z,60.40
2018-06-24T18:31:17.217Z,61.28
2018-06-24T18:33:45.670Z,60.24
2018-06-24T18:36:14.101Z,59.80
2018-06-24T18:38:42.720Z,59.43
2018-06-24T18:41:11.184Z,59.70
2018-06-24T18:43:39.786Z,59.50
2018-06-24T18:46:08.207Z,60.48
2018-06-24T18:48:36.908Z,60.73
2018-06-24T18:51:05.395Z,59.78
2018-06-24T18:53:33.842Z,60.60
2018-06-24T18:56:02.327Z,60.10
2018-06-24T18:58:30.944Z,59.71
2018-06-24T19:00:59.383Z,60.33
2018-06-24T19:03:27.923Z,60.86
2018-06-24T19:05:56.360Z,61.35
2018-06-24T19:08:24.804Z,61.60
2018-06-24T19:10:53.442Z,61.84
2018-06-24T19:13:21.851Z,66.42
2018-06-24T19:15:50.295Z,69.00
2018-06-24T19:18:19.053Z,69.47
2018-06-24T19:20:47.526Z,71.73
2018-06-24T19:23:15.974Z,76.16
2018-06-24T19:25:44.389Z,79.07
2018-06-24T19:28:13.162Z,79.66
2018-06-24T19:30:41.604Z,81.19
2018-06-24T19:33:10.003Z,82.29
2018-06-24T19:35:38.410Z,82.29
2018-06-24T19:38:06.861Z,82.29
2018-06-24T19:40:35.218Z,82.46
2018-06-24T19:43:03.652Z,84.50
2018-06-24T19:45:32.072Z,86.34
2018-06-24T19:48:00.477Z,88.32
2018-06-24T19:50:28.974Z,89.21
2018-06-24T19:52:57.779Z,91.33
2018-06-24T19:55:26.220Z,95.02
2018-06-24T19:57:54.699Z,97.94
2018-06-24T20:00:23.121Z,99.92
2018-06-24T20:02:51.575Z,100.00
2018-06-24T20:05:20.025Z,100.00
2018-06-24T20:07:48.532Z,100.00
2018-06-24T20:10:17.238Z,100.00
2018-06-24T20:12:45.781Z,100.00
2018-06-24T20:15:14.197Z,100.00
2018-06-24T20:17:42.829Z,100.00
2018-06-24T20:20:11.643Z,100.00
2018-06-24T20:22:40.280Z,100.00
2018-06-24T20:25:08.881Z,100.00
2018-06-24T20:27:37.932Z,100.00
2018-06-24T20:30:07.213Z,100.00
2018-06-24T20:32:37.300Z,100.00
2018-06-24T20:35:06.462Z,100.00
2018-06-24T20:37:34.965Z,100.00
2018-06-24T20:40:03.486Z,100.00
2018-06-24T20:42:31.953Z,100.00
2018-06-24T20:45:00.743Z,100.00
2018-06-24T20:47:29.275Z,100.00
2018-06-24T20:49:57.796Z,100.00
2018-06-24T20:52:26.402Z,100.00
2018-06-24T20:54:55.279Z,100.00
2018-06-24T20:57:23.794Z,100.00
2018-06-24T20:59:52.433Z,100.00
2018-06-24T21:02:21.090Z,100.00
2018-06-24T21:04:49.928Z,100.00
2018-06-24T21:07:18.415Z,100.00
2018-06-24T21:09:46.852Z,100.00
2018-06-24T21:12:15.347Z,100.00
2018-06-24T21:14:43.819Z,100.00
2018-06-24T21:17:12.260Z,100.00
2018-06-24T21:19:40.863Z,100.00
2018-06-24T21:22:09.325Z,100.00
2018-06-24T21:24:38.986Z,100.00
2018-06-24T21:27:08.995Z,100.00
2018-06-24T21:29:37.999Z,100.00
2018-06-24T21:32:06.758Z,100.00
2018-06-24T21:34:35.209Z,100.00
2018-06-24T21:37:03.858Z,100.00
2018-06-24T21:39:32.248Z,100.00
2018-06-24T21:42:00.953Z,100.00
2018-06-24T21:44:29.416Z,100.00
2018-06-24T21:46:57.832Z,100.00
2018-06-24T21:49:26.298Z,100.00
2018-06-24T21:51:54.724Z,100.00
2018-06-24T21:54:23.560Z,100.00
2018-06-24T21:56:51.994Z,100.00
2018-06-24T21:59:20.716Z,100.00
2018-06-24T22:03:18.254Z,100.00
2018-06-24T22:05:46.645Z,100.00
2018-06-24T22:08:15.338Z,100.00
2018-06-24T22:10:43.756Z,100.00
2018-06-24T22:13:12.188Z,100.00
2018-06-24T22:15:40.604Z,100.00
2018-06-24T22:18:09.046Z,100.00
2018-06-24T22:20:37.716Z,100.00
2018-06-24T22:23:06.140Z,100.00
2018-06-24T22:25:34.559Z,100.00
2018-06-24T22:28:03.035Z,100.00
2018-06-24T22:30:31.467Z,100.00
2018-06-24T22:32:59.891Z,100.00
2018-06-24T22:35:28.367Z,100.00
2018-06-24T22:37:56.827Z,100.00
2018-06-24T22:40:25.283Z,100.00
2018-06-24T22:42:53.694Z,100.00
2018-06-24T22:45:22.447Z,100.00
2018-06-24T22:47:50.947Z,100.00
2018-06-24T22:50:19.375Z,100.00
2018-06-24T22:52:47.792Z,100.00
2018-06-24T22:55:16.247Z,100.00
2018-06-24T22:57:44.706Z,100.00
2018-06-24T23:00:15.375Z,100.00
2018-06-24T23:02:44.447Z,100.00
2018-06-24T23:05:13.444Z,100.00
2018-06-24T23:07:43.203Z,100.00
2018-06-24T23:10:12.523Z,100.00
2018-06-24T23:12:41.216Z,100.00
2018-06-24T23:15:11.103Z,100.00
2018-06-24T23:17:40.080Z,100.00
2018-06-24T23:20:09.407Z,100.00
2018-06-24T23:22:38.027Z,100.00
2018-06-24T23:25:07.026Z,100.00
2018-06-24T23:27:35.467Z,100.00
2018-06-24T23:30:04.493Z,100.00
2018-06-24T23:32:32.947Z,100.00
2018-06-24T23:35:01.524Z,100.00
2018-06-24T23:37:29.955Z,100.00
2018-06-24T23:39:58.423Z,100.00
2018-06-24T23:42:26.835Z,100.00
2018-06-24T23:44:55.287Z,100.00
2018-06-24T23:47:23.693Z,100.00
2018-06-24T23:49:52.123Z,100.00
2018-06-24T23:52:20.542Z,100.00
2018-06-24T23:54:48.958Z,100.00
2018-06-24T23:57:17.383Z,100.00
2018-06-24T23:59:45.878Z,100.00
